sensor_id;sensor_type;location;lat;lon;timestamp;pressure;altitude;pressure_sealevel;temperature;humidity
53868;BME280;41577;47.470;19.080;2022-09-09T00:00:05;99881.56;;;18.17;85.33
53868;BME280;41577;47.470;19.080;2022-09-09T00:00:20;99887.78;;;18.17;85.33
53868;BME280;41577;47.470;19.080;2022-09-09T00:00:37;99883.44;;;18.16;85.33
53868;BME280;41577;47.470;19.080;2022-09-09T00:00:57;99878.28;;;18.15;85.70
53868;BME280;41577;47.470;19.080;2022-09-09T00:01:26;99884.78;;;18.14;85.88
53868;BME280;41577;47.470;19.080;2022-09-09T00:01:50;99883.69;;;18.15;86.07
53868;BME280;41577;47.470;19.080;2022-09-09T00:02:13;99884.78;;;18.14;85.51
53868;BME280;41577;47.470;19.080;2022-09-09T00:02:31;99881.25;;;18.13;85.60
53868;BME280;41577;47.470;19.080;2022-09-09T00:02:54;99882.31;;;18.12;85.86
53868;BME280;41577;47.470;19.080;2022-09-09T00:03:12;99884.78;;;18.14;85.10
53868;BME280;41577;47.470;19.080;2022-09-09T00:03:35;99881.84;;;18.15;85.63
53868;BME280;41577;47.470;19.080;2022-09-09T00:03:57;99875.34;;;18.16;85.79
53868;BME280;41577;47.470;19.080;2022-09-09T00:04:19;99881.00;;;18.15;85.58
53868;BME280;41577;47.470;19.080;2022-09-09T00:04:38;99882.88;;;18.14;85.70
53868;BME280;41577;47.470;19.080;2022-09-09T00:04:59;99870.19;;;18.15;85.26
53868;BME280;41577;47.470;19.080;2022-09-09T00:05:20;99872.06;;;18.14;85.13
53868;BME280;41577;47.470;19.080;2022-09-09T00:05:44;99873.97;;;18.14;85.13
53868;BME280;41577;47.470;19.080;2022-09-09T00:06:07;99878.56;;;18.13;85.56
53868;BME280;41577;47.470;19.080;2022-09-09T00:06:28;99874.78;;;18.14;85.63
53868;BME280;41577;47.470;19.080;2022-09-09T00:06:46;99877.47;;;18.14;85.36
53868;BME280;41577;47.470;19.080;2022-09-09T00:07:10;99881.25;;;18.13;85.43
53868;BME280;41577;47.470;19.080;2022-09-09T00:07:35;99869.38;;;18.14;85.48
53868;BME280;41577;47.470;19.080;2022-09-09T00:07:55;99875.59;;;18.15;85.47
53868;BME280;41577;47.470;19.080;2022-09-09T00:08:16;99878.28;;;18.15;85.54
53868;BME280;41577;47.470;19.080;2022-09-09T00:08:41;99884.53;;;18.15;85.56
53868;BME280;41577;47.470;19.080;2022-09-09T00:09:02;99880.19;;;18.14;85.71
53868;BME280;41577;47.470;19.080;2022-09-09T00:09:25;99876.66;;;18.14;85.73
53868;BME280;41577;47.470;19.080;2022-09-09T00:09:45;99876.66;;;18.14;85.94
53868;BME280;41577;47.470;19.080;2022-09-09T00:10:09;99873.97;;;18.14;85.55
53868;BME280;41577;47.470;19.080;2022-09-09T00:10:32;99868.56;;;18.14;85.65
53868;BME280;41577;47.470;19.080;2022-09-09T00:10:51;99871.25;;;18.14;84.86
53868;BME280;41577;47.470;19.080;2022-09-09T00:11:12;99871.25;;;18.14;85.43
53868;BME280;41577;47.470;19.080;2022-09-09T00:11:36;99867.75;;;18.13;85.64
53868;BME280;41577;47.470;19.080;2022-09-09T00:12:00;99873.16;;;18.13;85.56
53868;BME280;41577;47.470;19.080;2022-09-09T00:12:25;99875.59;;;18.15;85.75
53868;BME280;41577;47.470;19.080;2022-09-09T00:12:48;99872.06;;;18.14;86.07
53868;BME280;41577;47.470;19.080;2022-09-09T00:13:15;99867.75;;;18.13;86.10
53868;BME280;41577;47.470;19.080;2022-09-09T00:13:34;99868.56;;;18.14;85.99
53868;BME280;41577;47.470;19.080;2022-09-09T00:13:52;99872.06;;;18.14;86.36
53868;BME280;41577;47.470;19.080;2022-09-09T00:14:14;99868.56;;;18.14;86.47
53868;BME280;41577;47.470;19.080;2022-09-09T00:14:37;99868.31;;;18.15;85.59
53868;BME280;41577;47.470;19.080;2022-09-09T00:14:56;99871.84;;;18.16;85.77
53868;BME280;41577;47.470;19.080;2022-09-09T00:15:19;99864.78;;;18.15;85.72
53868;BME280;41577;47.470;19.080;2022-09-09T00:15:38;99862.91;;;18.15;85.69
53868;BME280;41577;47.470;19.080;2022-09-09T00:16:00;99861.03;;;18.16;85.27
53868;BME280;41577;47.470;19.080;2022-09-09T00:16:19;99866.44;;;18.16;85.37
53868;BME280;41577;47.470;19.080;2022-09-09T00:16:41;99860.75;;;18.17;85.27
53868;BME280;41577;47.470;19.080;2022-09-09T00:17:06;99868.84;;;18.17;85.41
53868;BME280;41577;47.470;19.080;2022-09-09T00:17:37;99875.91;;;18.18;85.89
53868;BME280;41577;47.470;19.080;2022-09-09T00:17:56;99871.31;;;18.19;86.12
53868;BME280;41577;47.470;19.080;2022-09-09T00:18:17;99863.44;;;18.17;86.04
53868;BME280;41577;47.470;19.080;2022-09-09T00:18:45;99876.97;;;18.17;85.97
53868;BME280;41577;47.470;19.080;2022-09-09T00:19:06;99873.44;;;18.17;86.18
53868;BME280;41577;47.470;19.080;2022-09-09T00:19:26;99881.31;;;18.18;86.08
53868;BME280;41577;47.470;19.080;2022-09-09T00:19:47;99873.44;;;18.17;86.06
53868;BME280;41577;47.470;19.080;2022-09-09T00:20:11;99874.25;;;18.17;86.17
53868;BME280;41577;47.470;19.080;2022-09-09T00:20:29;99876.72;;;18.19;86.19
53868;BME280;41577;47.470;19.080;2022-09-09T00:20:49;99883.22;;;18.18;86.03
53868;BME280;41577;47.470;19.080;2022-09-09T00:21:13;99876.16;;;18.17;85.90
53868;BME280;41577;47.470;19.080;2022-09-09T00:21:33;99882.38;;;18.17;85.73
53868;BME280;41577;47.470;19.080;2022-09-09T00:21:55;99879.66;;;18.17;85.89
53868;BME280;41577;47.470;19.080;2022-09-09T00:22:16;99880.50;;;18.18;85.80
53868;BME280;41577;47.470;19.080;2022-09-09T00:22:32;99886.97;;;18.17;85.95
53868;BME280;41577;47.470;19.080;2022-09-09T00:22:52;99885.91;;;18.18;85.93
53868;BME280;41577;47.470;19.080;2022-09-09T00:23:14;99891.31;;;18.18;85.84
53868;BME280;41577;47.470;19.080;2022-09-09T00:23:35;99887.78;;;18.17;85.81
53868;BME280;41577;47.470;19.080;2022-09-09T00:23:54;99880.75;;;18.16;85.91
53868;BME280;41577;47.470;19.080;2022-09-09T00:24:11;99885.06;;;18.17;85.86
53868;BME280;41577;47.470;19.080;2022-09-09T00:24:29;99887.53;;;18.19;85.76
53868;BME280;41577;47.470;19.080;2022-09-09T00:24:46;99886.97;;;18.17;85.65
53868;BME280;41577;47.470;19.080;2022-09-09T00:25:11;99891.31;;;18.18;86.01
53868;BME280;41577;47.470;19.080;2022-09-09T00:25:30;99889.19;;;18.20;85.88
53868;BME280;41577;47.470;19.080;2022-09-09T00:25:57;99891.06;;;18.19;85.86
53868;BME280;41577;47.470;19.080;2022-09-09T00:26:18;99889.19;;;18.20;86.12
53868;BME280;41577;47.470;19.080;2022-09-09T00:26:38;99886.50;;;18.20;86.00
53868;BME280;41577;47.470;19.080;2022-09-09T00:26:57;99883.78;;;18.20;85.88
53868;BME280;41577;47.470;19.080;2022-09-09T00:27:21;99889.19;;;18.20;86.23
53868;BME280;41577;47.470;19.080;2022-09-09T00:27:40;99878.38;;;18.20;85.55
53868;BME280;41577;47.470;19.080;2022-09-09T00:27:57;99881.63;;;18.22;85.70
53868;BME280;41577;47.470;19.080;2022-09-09T00:28:18;99887.03;;;18.22;85.91
53868;BME280;41577;47.470;19.080;2022-09-09T00:28:39;99880.81;;;18.22;86.02
53868;BME280;41577;47.470;19.080;2022-09-09T00:29:00;99878.09;;;18.22;85.98
53868;BME280;41577;47.470;19.080;2022-09-09T00:29:23;99885.41;;;18.21;85.82
53868;BME280;41577;47.470;19.080;2022-09-09T00:29:43;99881.91;;;18.21;85.90
53868;BME280;41577;47.470;19.080;2022-09-09T00:30:12;99881.91;;;18.21;85.85
53868;BME280;41577;47.470;19.080;2022-09-09T00:30:32;99881.91;;;18.21;86.18
53868;BME280;41577;47.470;19.080;2022-09-09T00:30:48;99883.78;;;18.20;86.39
53868;BME280;41577;47.470;19.080;2022-09-09T00:31:11;99884.59;;;18.21;86.45
53868;BME280;41577;47.470;19.080;2022-09-09T00:31:28;99886.50;;;18.20;86.36
53868;BME280;41577;47.470;19.080;2022-09-09T00:31:44;99875.69;;;18.20;86.49
53868;BME280;41577;47.470;19.080;2022-09-09T00:32:11;99883.78;;;18.20;86.65
53868;BME280;41577;47.470;19.080;2022-09-09T00:32:28;99887.31;;;18.21;86.42
53868;BME280;41577;47.470;19.080;2022-09-09T00:32:46;99879.19;;;18.21;86.12
53868;BME280;41577;47.470;19.080;2022-09-09T00:33:03;99872.13;;;18.19;85.75
53868;BME280;41577;47.470;19.080;2022-09-09T00:33:23;99871.31;;;18.19;85.96
53868;BME280;41577;47.470;19.080;2022-09-09T00:33:40;99876.50;;;18.21;85.80
53868;BME280;41577;47.470;19.080;2022-09-09T00:33:58;99868.38;;;18.21;85.77
53868;BME280;41577;47.470;19.080;2022-09-09T00:34:19;99875.41;;;18.22;85.57
53868;BME280;41577;47.470;19.080;2022-09-09T00:34:36;99874.34;;;18.23;85.92
53868;BME280;41577;47.470;19.080;2022-09-09T00:34:55;99877.06;;;18.23;85.99
53868;BME280;41577;47.470;19.080;2022-09-09T00:35:16;99877.88;;;18.23;85.82
53868;BME280;41577;47.470;19.080;2022-09-09T00:35:35;99876.22;;;18.22;85.27
53868;BME280;41577;47.470;19.080;2022-09-09T00:35:53;99873.28;;;18.24;85.14
53868;BME280;41577;47.470;19.080;2022-09-09T00:36:13;99878.69;;;18.24;85.43
53868;BME280;41577;47.470;19.080;2022-09-09T00:36:31;99879.75;;;18.23;84.90
53868;BME280;41577;47.470;19.080;2022-09-09T00:36:48;99882.72;;;18.21;85.02
53868;BME280;41577;47.470;19.080;2022-09-09T00:37:05;99872.97;;;18.20;85.06
53868;BME280;41577;47.470;19.080;2022-09-09T00:37:24;99874.59;;;18.21;85.32
53868;BME280;41577;47.470;19.080;2022-09-09T00:37:39;99878.38;;;18.20;85.26
53868;BME280;41577;47.470;19.080;2022-09-09T00:38:00;99876.72;;;18.19;85.29
53868;BME280;41577;47.470;19.080;2022-09-09T00:38:18;99880.50;;;18.18;85.51
53868;BME280;41577;47.470;19.080;2022-09-09T00:38:35;99876.72;;;18.19;85.64
53868;BME280;41577;47.470;19.080;2022-09-09T00:38:55;99874.25;;;18.17;85.82
53868;BME280;41577;47.470;19.080;2022-09-09T00:39:13;99876.72;;;18.19;85.51
53868;BME280;41577;47.470;19.080;2022-09-09T00:39:32;99876.97;;;18.17;85.86
53868;BME280;41577;47.470;19.080;2022-09-09T00:39:50;99884.25;;;18.17;85.73
53868;BME280;41577;47.470;19.080;2022-09-09T00:40:18;99883.69;;;18.15;86.05
53868;BME280;41577;47.470;19.080;2022-09-09T00:40:39;99882.88;;;18.14;85.80
53868;BME280;41577;47.470;19.080;2022-09-09T00:41:01;99887.47;;;18.14;86.22
53868;BME280;41577;47.470;19.080;2022-09-09T00:41:22;99888.28;;;18.14;86.33
53868;BME280;41577;47.470;19.080;2022-09-09T00:41:52;99891.00;;;18.14;86.50
53868;BME280;41577;47.470;19.080;2022-09-09T00:42:14;99892.88;;;18.14;86.52
53868;BME280;41577;47.470;19.080;2022-09-09T00:42:36;99899.59;;;18.11;86.33
53868;BME280;41577;47.470;19.080;2022-09-09T00:43:02;99895.25;;;18.10;86.59
53868;BME280;41577;47.470;19.080;2022-09-09T00:43:25;99901.72;;;18.09;86.51
53868;BME280;41577;47.470;19.080;2022-09-09T00:43:41;99894.69;;;18.08;86.50
53868;BME280;41577;47.470;19.080;2022-09-09T00:44:03;99898.22;;;18.09;86.49
53868;BME280;41577;47.470;19.080;2022-09-09T00:44:30;99891.16;;;18.08;86.44
53868;BME280;41577;47.470;19.080;2022-09-09T00:44:52;99900.06;;;18.08;86.54
53868;BME280;41577;47.470;19.080;2022-09-09T00:45:19;99887.06;;;18.05;86.65
53868;BME280;41577;47.470;19.080;2022-09-09T00:45:55;99891.91;;;18.03;86.80
53868;BME280;41577;47.470;19.080;2022-09-09T00:46:25;99893.78;;;18.03;86.75
53868;BME280;41577;47.470;19.080;2022-09-09T00:46:50;99892.13;;;18.02;86.68
53868;BME280;41577;47.470;19.080;2022-09-09T00:47:20;99893.22;;;18.01;86.96
53868;BME280;41577;47.470;19.080;2022-09-09T00:47:44;99892.66;;;17.98;87.61
53868;BME280;41577;47.470;19.080;2022-09-09T00:48:03;99895.34;;;17.98;87.28
53868;BME280;41577;47.470;19.080;2022-09-09T00:48:22;99900.75;;;17.98;87.02
53868;BME280;41577;47.470;19.080;2022-09-09T00:48:45;99888.06;;;17.99;87.25
53868;BME280;41577;47.470;19.080;2022-09-09T00:49:12;99894.31;;;18.00;87.24
53868;BME280;41577;47.470;19.080;2022-09-09T00:49:39;99888.06;;;17.99;87.82
53868;BME280;41577;47.470;19.080;2022-09-09T00:50:00;99894.31;;;18.00;87.36
53868;BME280;41577;47.470;19.080;2022-09-09T00:50:34;99892.66;;;17.98;87.48
53868;BME280;41577;47.470;19.080;2022-09-09T00:50:53;99897.47;;;17.96;87.53
53868;BME280;41577;47.470;19.080;2022-09-09T00:51:15;99892.66;;;17.98;87.59
53868;BME280;41577;47.470;19.080;2022-09-09T00:51:43;99898.63;;;18.01;87.80
53868;BME280;41577;47.470;19.080;2022-09-09T00:52:03;99889.94;;;17.98;87.93
53868;BME280;41577;47.470;19.080;2022-09-09T00:52:27;99896.44;;;17.97;87.83
53868;BME280;41577;47.470;19.080;2022-09-09T00:52:51;99899.94;;;17.98;87.96
53868;BME280;41577;47.470;19.080;2022-09-09T00:53:20;99894.53;;;17.98;88.01
53868;BME280;41577;47.470;19.080;2022-09-09T00:53:51;99891.25;;;17.96;88.06
53868;BME280;41577;47.470;19.080;2022-09-09T00:55:00;99890.44;;;17.95;88.22
53868;BME280;41577;47.470;19.080;2022-09-09T00:55:22;99888.56;;;17.96;88.48
53868;BME280;41577;47.470;19.080;2022-09-09T00:55:48;99894.53;;;17.98;88.21
53868;BME280;41577;47.470;19.080;2022-09-09T00:56:14;99889.13;;;17.98;88.06
53868;BME280;41577;47.470;19.080;2022-09-09T00:56:30;99891.59;;;18.00;88.28
53868;BME280;41577;47.470;19.080;2022-09-09T00:56:55;99890.75;;;17.99;88.72
53868;BME280;41577;47.470;19.080;2022-09-09T00:57:22;99892.06;;;17.96;88.68
53868;BME280;41577;47.470;19.080;2022-09-09T00:57:38;99902.63;;;17.98;88.81
53868;BME280;41577;47.470;19.080;2022-09-09T00:57:55;99890.69;;;17.94;88.63
53868;BME280;41577;47.470;19.080;2022-09-09T00:58:11;99888.56;;;17.96;88.60
53868;BME280;41577;47.470;19.080;2022-09-09T00:58:26;99889.63;;;17.95;88.67
53868;BME280;41577;47.470;19.080;2022-09-09T00:58:42;99888.78;;;17.94;88.72
53868;BME280;41577;47.470;19.080;2022-09-09T00:59:00;99887.16;;;17.93;88.71
53868;BME280;41577;47.470;19.080;2022-09-09T00:59:25;99879.88;;;17.94;88.88
53868;BME280;41577;47.470;19.080;2022-09-09T00:59:47;99887.16;;;17.93;88.93
53868;BME280;41577;47.470;19.080;2022-09-09T01:00:20;99882.81;;;17.92;88.67
53868;BME280;41577;47.470;19.080;2022-09-09T01:00:39;99885.53;;;17.92;88.78
53868;BME280;41577;47.470;19.080;2022-09-09T01:01:01;99891.19;;;17.91;89.05
53868;BME280;41577;47.470;19.080;2022-09-09T01:01:17;99893.09;;;17.90;88.99
53868;BME280;41577;47.470;19.080;2022-09-09T01:01:33;99886.59;;;17.91;88.78
53868;BME280;41577;47.470;19.080;2022-09-09T01:01:50;99890.38;;;17.90;89.02
53868;BME280;41577;47.470;19.080;2022-09-09T01:02:13;99889.53;;;17.90;89.01
53868;BME280;41577;47.470;19.080;2022-09-09T01:02:36;99894.13;;;17.89;89.47
53868;BME280;41577;47.470;19.080;2022-09-09T01:03:06;99894.13;;;17.89;88.76
53868;BME280;41577;47.470;19.080;2022-09-09T01:03:32;99900.59;;;17.88;89.32
53868;BME280;41577;47.470;19.080;2022-09-09T01:03:53;99903.31;;;17.88;89.51
53868;BME280;41577;47.470;19.080;2022-09-09T01:04:10;99896.03;;;17.89;89.59
53868;BME280;41577;47.470;19.080;2022-09-09T01:04:34;99901.44;;;17.89;89.49
53868;BME280;41577;47.470;19.080;2022-09-09T01:04:50;99898.72;;;17.89;89.50
53868;BME280;41577;47.470;19.080;2022-09-09T01:05:10;99906.00;;;17.88;89.61
53868;BME280;41577;47.470;19.080;2022-09-09T01:05:33;99911.16;;;17.90;89.45
53868;BME280;41577;47.470;19.080;2022-09-09T01:05:55;99907.06;;;17.87;89.54
53868;BME280;41577;47.470;19.080;2022-09-09T01:06:16;99906.00;;;17.88;90.02
53868;BME280;41577;47.470;19.080;2022-09-09T01:06:37;99905.16;;;17.88;89.40
53868;BME280;41577;47.470;19.080;2022-09-09T01:06:56;99906.81;;;17.89;89.52
53868;BME280;41577;47.470;19.080;2022-09-09T01:07:16;99904.13;;;17.89;89.60
53868;BME280;41577;47.470;19.080;2022-09-09T01:07:31;99904.13;;;17.89;89.69
53868;BME280;41577;47.470;19.080;2022-09-09T01:07:48;99905.16;;;17.88;89.79
53868;BME280;41577;47.470;19.080;2022-09-09T01:09:04;99910.84;;;17.86;89.79
53868;BME280;41577;47.470;19.080;2022-09-09T01:09:24;99908.94;;;17.87;89.75
53868;BME280;41577;47.470;19.080;2022-09-09T01:09:48;99909.19;;;17.85;89.92
53868;BME280;41577;47.470;19.080;2022-09-09T01:10:11;99909.19;;;17.85;90.11
53868;BME280;41577;47.470;19.080;2022-09-09T01:10:39;99914.00;;;17.83;90.12
53868;BME280;41577;47.470;19.080;2022-09-09T01:10:59;99910.50;;;17.83;90.25
53868;BME280;41577;47.470;19.080;2022-09-09T01:11:20;99900.50;;;17.83;90.39
53868;BME280;41577;47.470;19.080;2022-09-09T01:11:45;99913.19;;;17.83;90.36
53868;BME280;41577;47.470;19.080;2022-09-09T01:12:09;99907.81;;;17.83;90.55
53868;BME280;41577;47.470;19.080;2022-09-09T01:12:34;99909.19;;;17.85;90.54
53868;BME280;41577;47.470;19.080;2022-09-09T01:12:55;99908.38;;;17.85;90.35
53868;BME280;41577;47.470;19.080;2022-09-09T01:13:26;99914.59;;;17.85;90.17
53868;BME280;41577;47.470;19.080;2022-09-09T01:13:45;99923.03;;;17.89;90.16
53868;BME280;41577;47.470;19.080;2022-09-09T01:14:11;99912.22;;;17.89;89.91
53868;BME280;41577;47.470;19.080;2022-09-09T01:14:39;99914.94;;;17.89;90.02
53868;BME280;41577;47.470;19.080;2022-09-09T01:15:01;99913.28;;;17.88;89.99
53868;BME280;41577;47.470;19.080;2022-09-09T01:15:20;99914.13;;;17.88;90.04
53868;BME280;41577;47.470;19.080;2022-09-09T01:15:41;99910.84;;;17.86;89.56
53868;BME280;41577;47.470;19.080;2022-09-09T01:16:00;99910.00;;;17.86;89.68
53868;BME280;41577;47.470;19.080;2022-09-09T01:16:18;99920.81;;;17.86;89.77
53868;BME280;41577;47.470;19.080;2022-09-09T01:16:33;99916.25;;;17.86;89.99
53868;BME280;41577;47.470;19.080;2022-09-09T01:16:50;99919.19;;;17.85;89.85
53868;BME280;41577;47.470;19.080;2022-09-09T01:17:10;99920.00;;;17.85;90.00
53868;BME280;41577;47.470;19.080;2022-09-09T01:17:33;99920.00;;;17.85;89.58
53868;BME280;41577;47.470;19.080;2022-09-09T01:17:58;99915.41;;;17.86;89.90
53868;BME280;41577;47.470;19.080;2022-09-09T01:18:21;99912.97;;;17.84;89.75
53868;BME280;41577;47.470;19.080;2022-09-09T01:18:40;99911.88;;;17.85;89.94
53868;BME280;41577;47.470;19.080;2022-09-09T01:18:56;99917.28;;;17.85;89.92
53868;BME280;41577;47.470;19.080;2022-09-09T01:19:18;99911.66;;;17.87;89.83
53868;BME280;41577;47.470;19.080;2022-09-09T01:19:45;99911.88;;;17.85;89.76
53868;BME280;41577;47.470;19.080;2022-09-09T01:20:12;99915.66;;;17.84;89.37
53868;BME280;41577;47.470;19.080;2022-09-09T01:20:39;99914.59;;;17.85;89.17
53868;BME280;41577;47.470;19.080;2022-09-09T01:21:04;99918.09;;;17.86;89.09
53868;BME280;41577;47.470;19.080;2022-09-09T01:21:32;99903.78;;;17.85;88.91
53868;BME280;41577;47.470;19.080;2022-09-09T01:21:51;99911.88;;;17.85;89.09
53868;BME280;41577;47.470;19.080;2022-09-09T01:22:18;99914.59;;;17.85;89.12
53868;BME280;41577;47.470;19.080;2022-09-09T01:22:43;99911.06;;;17.85;89.03
53868;BME280;41577;47.470;19.080;2022-09-09T01:23:17;99918.09;;;17.86;89.15
53868;BME280;41577;47.470;19.080;2022-09-09T01:24:00;99925.41;;;17.85;89.55
53868;BME280;41577;47.470;19.080;2022-09-09T01:24:40;99917.56;;;17.84;89.85
53868;BME280;41577;47.470;19.080;2022-09-09T01:26:04;99917.28;;;17.85;89.51
53868;BME280;41577;47.470;19.080;2022-09-09T01:26:26;99920.81;;;17.86;89.27
53868;BME280;41577;47.470;19.080;2022-09-09T01:26:48;99921.88;;;17.85;89.48
53868;BME280;41577;47.470;19.080;2022-09-09T01:27:12;99921.66;;;17.86;89.21
53868;BME280;41577;47.470;19.080;2022-09-09T01:27:27;99917.06;;;17.87;89.46
53868;BME280;41577;47.470;19.080;2022-09-09T01:27:43;99923.50;;;17.86;89.41
53868;BME280;41577;47.470;19.080;2022-09-09T01:28:01;99927.28;;;17.85;89.31
53868;BME280;41577;47.470;19.080;2022-09-09T01:28:21;99930.00;;;17.85;89.63
53868;BME280;41577;47.470;19.080;2022-09-09T01:28:40;99928.38;;;17.84;89.72
53868;BME280;41577;47.470;19.080;2022-09-09T01:29:00;99919.19;;;17.85;89.73
53868;BME280;41577;47.470;19.080;2022-09-09T01:29:22;99929.19;;;17.84;89.81
53868;BME280;41577;47.470;19.080;2022-09-09T01:29:39;99936.47;;;17.84;89.65
53868;BME280;41577;47.470;19.080;2022-09-09T01:29:55;99933.75;;;17.84;89.67
53868;BME280;41577;47.470;19.080;2022-09-09T01:30:11;99931.88;;;17.84;89.43
53868;BME280;41577;47.470;19.080;2022-09-09T01:30:28;99929.41;;;17.83;89.73
53868;BME280;41577;47.470;19.080;2022-09-09T01:30:44;99936.69;;;17.82;89.66
53868;BME280;41577;47.470;19.080;2022-09-09T01:31:03;99930.22;;;17.83;89.73
53868;BME280;41577;47.470;19.080;2022-09-09T01:31:27;99926.94;;;17.81;89.83
53868;BME280;41577;47.470;19.080;2022-09-09T01:31:54;99927.78;;;17.82;89.89
53868;BME280;41577;47.470;19.080;2022-09-09T01:32:39;99930.50;;;17.82;90.34
53868;BME280;41577;47.470;19.080;2022-09-09T01:32:55;99927.78;;;17.82;90.22
53868;BME280;41577;47.470;19.080;2022-09-09T01:33:14;99932.34;;;17.81;90.24
53868;BME280;41577;47.470;19.080;2022-09-09T01:33:32;99924.47;;;17.80;90.38
53868;BME280;41577;47.470;19.080;2022-09-09T01:33:49;99923.41;;;17.81;90.58
53868;BME280;41577;47.470;19.080;2022-09-09T01:34:09;99924.25;;;17.81;90.49
53868;BME280;41577;47.470;19.080;2022-09-09T01:34:27;99922.38;;;17.82;90.50
53868;BME280;41577;47.470;19.080;2022-09-09T01:34:43;99925.09;;;17.82;90.48
53868;BME280;41577;47.470;19.080;2022-09-09T01:35:00;99919.69;;;17.82;90.68
53868;BME280;41577;47.470;19.080;2022-09-09T01:35:26;99925.28;;;17.80;90.44
53868;BME280;41577;47.470;19.080;2022-09-09T01:35:45;99922.59;;;17.80;90.64
53868;BME280;41577;47.470;19.080;2022-09-09T01:36:09;99928.81;;;17.81;90.57
53868;BME280;41577;47.470;19.080;2022-09-09T01:36:37;99924.25;;;17.81;90.65
53868;BME280;41577;47.470;19.080;2022-09-09T01:36:58;99923.41;;;17.81;90.71
53868;BME280;41577;47.470;19.080;2022-09-09T01:37:15;99920.69;;;17.81;90.66
53868;BME280;41577;47.470;19.080;2022-09-09T01:37:30;99918.00;;;17.81;90.54
53868;BME280;41577;47.470;19.080;2022-09-09T01:37:45;99928.81;;;17.81;90.56
53868;BME280;41577;47.470;19.080;2022-09-09T01:38:00;99919.88;;;17.80;90.76
53868;BME280;41577;47.470;19.080;2022-09-09T01:38:15;99920.97;;;17.79;90.90
53868;BME280;41577;47.470;19.080;2022-09-09T01:38:32;99927.19;;;17.80;90.84
53868;BME280;41577;47.470;19.080;2022-09-09T01:38:49;99914.47;;;17.80;90.66
53868;BME280;41577;47.470;19.080;2022-09-09T01:39:05;99916.97;;;17.82;90.71
53868;BME280;41577;47.470;19.080;2022-09-09T01:39:21;99916.72;;;17.83;90.68
53868;BME280;41577;47.470;19.080;2022-09-09T01:39:45;99924.00;;;17.83;90.89
53868;BME280;41577;47.470;19.080;2022-09-09T01:40:04;99920.50;;;17.82;90.74
53868;BME280;41577;47.470;19.080;2022-09-09T01:40:22;99912.38;;;17.82;90.96
53868;BME280;41577;47.470;19.080;2022-09-09T01:40:38;99916.97;;;17.82;90.92
53868;BME280;41577;47.470;19.080;2022-09-09T01:40:54;99908.03;;;17.81;90.99
53868;BME280;41577;47.470;19.080;2022-09-09T01:41:16;99909.91;;;17.81;91.02
53868;BME280;41577;47.470;19.080;2022-09-09T01:41:38;99910.75;;;17.81;90.80
53868;BME280;41577;47.470;19.080;2022-09-09T01:41:57;99907.47;;;17.79;90.51
53868;BME280;41577;47.470;19.080;2022-09-09T01:42:13;99907.19;;;17.81;90.73
53868;BME280;41577;47.470;19.080;2022-09-09T01:42:30;99906.38;;;17.80;90.57
53868;BME280;41577;47.470;19.080;2022-09-09T01:42:46;99902.88;;;17.80;90.73
53868;BME280;41577;47.470;19.080;2022-09-09T01:43:00;99908.28;;;17.80;90.80
53868;BME280;41577;47.470;19.080;2022-09-09T01:43:14;99916.38;;;17.80;90.79
53868;BME280;41577;47.470;19.080;2022-09-09T01:43:29;99906.63;;;17.78;90.90
53868;BME280;41577;47.470;19.080;2022-09-09T01:43:45;99905.56;;;17.80;90.96
53868;BME280;41577;47.470;19.080;2022-09-09T01:44:01;99905.00;;;17.77;90.61
53868;BME280;41577;47.470;19.080;2022-09-09T01:44:19;99907.69;;;17.77;90.27
53868;BME280;41577;47.470;19.080;2022-09-09T01:44:34;99908.75;;;17.76;90.34
53868;BME280;41577;47.470;19.080;2022-09-09T01:44:51;99907.69;;;17.77;90.53
53868;BME280;41577;47.470;19.080;2022-09-09T01:45:06;99916.59;;;17.78;90.23
53868;BME280;41577;47.470;19.080;2022-09-09T01:45:21;99907.69;;;17.77;90.19
53868;BME280;41577;47.470;19.080;2022-09-09T01:45:35;99902.28;;;17.77;90.11
53868;BME280;41577;47.470;19.080;2022-09-09T01:45:53;99904.19;;;17.77;89.96
53868;BME280;41577;47.470;19.080;2022-09-09T01:46:08;99902.53;;;17.76;90.16
53868;BME280;41577;47.470;19.080;2022-09-09T01:46:24;99906.03;;;17.76;90.12
53868;BME280;41577;47.470;19.080;2022-09-09T01:46:41;99913.09;;;17.77;90.38
53868;BME280;41577;47.470;19.080;2022-09-09T01:47:01;99910.41;;;17.77;90.45
53868;BME280;41577;47.470;19.080;2022-09-09T01:47:18;99916.03;;;17.76;90.44
53868;BME280;41577;47.470;19.080;2022-09-09T01:48:04;99914.16;;;17.76;90.25
53868;BME280;41577;47.470;19.080;2022-09-09T01:48:32;99909.81;;;17.75;90.36
53868;BME280;41577;47.470;19.080;2022-09-09T01:48:53;99907.13;;;17.75;90.50
53868;BME280;41577;47.470;19.080;2022-09-09T01:49:10;99917.91;;;17.75;90.41
53868;BME280;41577;47.470;19.080;2022-09-09T01:49:27;99907.13;;;17.75;90.61
53868;BME280;41577;47.470;19.080;2022-09-09T01:49:43;99918.72;;;17.76;90.50
53868;BME280;41577;47.470;19.080;2022-09-09T01:50:08;99923.31;;;17.75;90.43
53868;BME280;41577;47.470;19.080;2022-09-09T01:50:26;99915.22;;;17.75;90.38
53868;BME280;41577;47.470;19.080;2022-09-09T01:50:41;99920.38;;;17.77;90.48
53868;BME280;41577;47.470;19.080;2022-09-09T01:50:55;99922.25;;;17.76;90.43
53868;BME280;41577;47.470;19.080;2022-09-09T01:51:10;99922.25;;;17.76;90.56
53868;BME280;41577;47.470;19.080;2022-09-09T01:51:24;99927.66;;;17.76;90.41
53868;BME280;41577;47.470;19.080;2022-09-09T01:51:41;99920.63;;;17.75;90.29
53868;BME280;41577;47.470;19.080;2022-09-09T01:52:01;99921.44;;;17.76;90.35
53868;BME280;41577;47.470;19.080;2022-09-09T01:52:21;99923.09;;;17.77;90.51
53868;BME280;41577;47.470;19.080;2022-09-09T01:52:36;99929.31;;;17.77;90.50